Airport View

Enter AWOS ICAO identifier for current METAR.

ex. KFNL

KGPZ 120456Z AUTO 18005KT 10SM OVC065 M17/M22 A3032 RMK AO2 SLP310 T11721217 FZRANO

12 Dec 2019 05:58

Frequency: 118.425

Phone: 218-326-8337

Other Area AWOS: KHIB - KXVG - KFOZ - KHZX

TAF KHIB 112325Z 1200/1224 VRB03KT P6SM FEW250 FM120500 VRB02KT P6SM BKN025 FM120800 VRB02KT 4SM -SN OVC009 FM121700 07005KT 5SM BR BKN017